Time;durP1;ratioP1;P1;durP2;ratioP2;P2;SDS_P1;SDS_P2;PMS_P1;PMS_P2;Temp;Humidity;BMP_temperature;BMP_pressure;BME280_temperature;BME280_humidity;BME280_pressure;Samples;Min_cycle;Max_cycle;Signal;HPM_P1;HPM_P2
2023/01/31 00:01:13;;;;;;;7.00;1.17;;;4.20;99.90;;;;;;5015441;28;20418;-83
2023/01/31 00:03:40;;;;;;;8.03;0.70;;;4.20;99.90;;;;;;5015621;28;20402;-81
2023/01/31 00:06:11;;;;;;;8.00;1.23;;;4.20;99.90;;;;;;4998577;28;20418;-90
2023/01/31 00:08:37;;;;;;;9.47;1.27;;;4.20;99.90;;;;;;4998371;28;20478;-91
2023/01/31 00:11:02;;;;;;;8.10;1.47;;;4.20;99.90;;;;;;5015379;28;20942;-86
2023/01/31 00:13:28;;;;;;;8.93;1.30;;;4.20;99.90;;;;;;5019952;28;20172;-93
2023/01/31 00:15:56;;;;;;;12.77;0.83;;;4.20;99.90;;;;;;5019008;28;20211;-81
2023/01/31 00:18:21;;;;;;;8.97;1.03;;;4.20;99.90;;;;;;5019396;28;20179;-94
2023/01/31 00:20:47;;;;;;;4.73;0.97;;;4.20;99.90;;;;;;5019784;28;20433;-85
2023/01/31 00:23:12;;;;;;;8.10;1.10;;;4.20;99.90;;;;;;5026582;28;20705;-82
2023/01/31 00:25:37;;;;;;;8.43;0.90;;;4.10;99.90;;;;;;5008714;28;20172;-94
2023/01/31 00:28:04;;;;;;;9.40;1.37;;;4.00;99.90;;;;;;5022320;28;20168;-88
2023/01/31 00:30:29;;;;;;;2.00;0.50;;;3.90;99.90;;;;;;5020094;28;20186;-83
2023/01/31 00:32:55;;;;;;;4.07;1.10;;;3.80;99.90;;;;;;5018968;28;20416;-88
2023/01/31 00:35:20;;;;;;;8.07;1.30;;;3.70;99.90;;;;;;5031041;28;20227;-93
2023/01/31 00:37:45;;;;;;;6.87;1.47;;;3.70;99.90;;;;;;4973418;28;20194;-83
2023/01/31 00:40:11;;;;;;;5.97;0.73;;;3.70;99.90;;;;;;5010511;28;20183;-87
2023/01/31 00:42:37;;;;;;;8.77;0.93;;;3.70;99.90;;;;;;4987618;28;20262;-90
2023/01/31 00:45:02;;;;;;;8.27;1.03;;;3.70;99.90;;;;;;4997309;28;20258;-94
2023/01/31 00:47:28;;;;;;;9.20;1.30;;;3.80;99.90;;;;;;4982101;28;20659;-80
2023/01/31 00:49:53;;;;;;;11.93;1.80;;;3.90;99.90;;;;;;4987783;28;20175;-92
2023/01/31 00:52:19;;;;;;;4.40;1.60;;;3.90;99.90;;;;;;5005466;28;20249;-91
2023/01/31 00:54:44;;;;;;;9.53;1.30;;;4.00;99.90;;;;;;4987471;28;20168;-89
2023/01/31 00:57:10;;;;;;;7.57;1.67;;;4.00;99.90;;;;;;5001701;28;20175;-93
2023/01/31 00:59:35;;;;;;;6.97;2.60;;;4.10;99.90;;;;;;4982019;28;20538;-87
2023/01/31 01:02:01;;;;;;;9.37;1.50;;;4.10;99.90;;;;;;4986316;28;20185;-92
2023/01/31 01:04:26;;;;;;;8.57;1.00;;;4.10;99.90;;;;;;4987735;28;20181;-92
2023/01/31 01:06:51;;;;;;;9.43;1.10;;;4.00;99.90;;;;;;4985386;28;20637;-95
2023/01/31 01:09:17;;;;;;;7.20;1.10;;;4.00;99.90;;;;;;4986269;28;20224;-93
2023/01/31 01:11:43;;;;;;;5.07;1.40;;;4.00;99.90;;;;;;4986619;28;20211;-93
2023/01/31 01:14:18;;;;;;;7.33;1.00;;;4.00;99.90;;;;;;4986636;28;20182;-96
2023/01/31 01:16:43;;;;;;;13.67;1.77;;;4.00;99.90;;;;;;4997365;28;20211;-82
2023/01/31 01:19:16;;;;;;;6.97;1.27;;;3.80;99.90;;;;;;5005574;28;20434;-94
2023/01/31 01:21:43;;;;;;;9.90;0.93;;;3.60;99.90;;;;;;4996184;28;20535;-93
2023/01/31 01:24:16;;;;;;;10.17;2.00;;;3.60;99.90;;;;;;4963867;28;20816;-91
2023/01/31 01:26:43;;;;;;;7.23;1.03;;;3.50;99.90;;;;;;4996366;28;20412;-89
2023/01/31 01:29:08;;;;;;;10.73;1.50;;;3.40;99.90;;;;;;4964161;28;20939;-92
2023/01/31 01:31:36;;;;;;;12.93;1.73;;;3.30;99.90;;;;;;4978968;28;20415;-91
2023/01/31 01:34:10;;;;;;;4.40;1.30;;;3.20;99.90;;;;;;4979940;28;20588;-89
2023/01/31 01:36:36;;;;;;;4.40;0.87;;;3.10;99.90;;;;;;4996662;28;20467;-86
2023/01/31 01:39:05;;;;;;;7.10;2.17;;;3.10;99.90;;;;;;4968589;28;20414;-95
2023/01/31 01:41:32;;;;;;;8.70;2.30;;;3.20;99.90;;;;;;5017080;28;20418;-90
2023/01/31 01:43:59;;;;;;;5.97;1.23;;;3.20;99.90;;;;;;5017430;28;20475;-91
2023/01/31 01:46:35;;;;;;;5.40;1.00;;;3.30;99.90;;;;;;5016213;28;20545;-89
2023/01/31 01:49:15;;;;;;;9.20;2.10;;;3.30;99.90;;;;;;5015576;28;20428;-90
2023/01/31 01:51:43;;;;;;;6.80;1.17;;;3.30;99.90;;;;;;5016796;28;20940;-91
2023/01/31 01:54:15;;;;;;;10.87;1.87;;;3.40;99.90;;;;;;5015639;28;20418;-87
2023/01/31 01:56:43;;;;;;;10.77;1.40;;;3.40;99.90;;;;;;5031297;28;20490;-91
2023/01/31 01:59:18;;;;;;;5.83;1.37;;;3.50;99.90;;;;;;5017031;28;20411;-88
2023/01/31 02:01:46;;;;;;;6.00;2.23;;;3.50;99.90;;;;;;5016626;28;20520;-92
2023/01/31 02:04:16;;;;;;;7.13;1.70;;;3.50;99.90;;;;;;5031412;28;20425;-91
2023/01/31 02:06:43;;;;;;;5.43;0.80;;;3.50;99.90;;;;;;5030013;28;20496;-88
2023/01/31 02:09:17;;;;;;;7.13;0.90;;;3.50;99.90;;;;;;5029324;28;20513;-93
2023/01/31 02:11:43;;;;;;;13.17;1.10;;;3.50;99.90;;;;;;5013433;28;20922;-93
2023/01/31 02:14:16;;;;;;;3.03;0.80;;;3.50;99.90;;;;;;5029959;28;20472;-94
2023/01/31 02:16:43;;;;;;;10.80;1.60;;;3.40;99.90;;;;;;5014064;28;20353;-84
2023/01/31 02:19:24;;;;;;;5.53;1.17;;;3.40;99.90;;;;;;5029148;28;20414;-87
2023/01/31 02:22:03;;;;;;;8.53;0.70;;;3.40;99.90;;;;;;4993218;28;20489;-95
2023/01/31 02:24:48;;;;;;;17.70;2.00;;;3.40;99.90;;;;;;5011950;28;20471;-90
2023/01/31 02:27:41;;;;;;;4.17;0.80;;;3.40;99.90;;;;;;4996394;28;20436;-87
2023/01/31 02:30:36;;;;;;;2.73;0.90;;;3.30;99.90;;;;;;5014695;28;20441;-87
2023/01/31 02:33:12;;;;;;;8.33;1.80;;;3.40;99.90;;;;;;5014982;28;20453;-94
2023/01/31 02:35:53;;;;;;;6.80;0.60;;;3.50;99.90;;;;;;5018011;28;20472;-88
2023/01/31 02:38:36;;;;;;;5.47;0.90;;;3.60;99.90;;;;;;5017854;28;20791;-86
2023/01/31 02:41:40;;;;;;;6.40;1.90;;;3.60;99.90;;;;;;5017983;28;20437;-93
2023/01/31 02:47:47;;;;;;;9.40;1.27;;;3.70;99.90;;;;;;5031683;28;20464;-92
2023/01/31 02:50:39;;;;;;;10.13;1.90;;;3.80;99.90;;;;;;5017509;28;20401;-83
2023/01/31 02:53:15;;;;;;;4.67;0.73;;;3.90;99.90;;;;;;4996086;28;20442;-93
2023/01/31 02:58:39;;;;;;;11.03;1.37;;;3.80;99.90;;;;;;5008329;28;20409;-91
2023/01/31 03:01:09;;;;;;;12.30;0.97;;;3.80;99.90;;;;;;5032657;28;20521;-89
2023/01/31 03:03:36;;;;;;;9.57;1.63;;;3.80;99.90;;;;;;4986778;28;20525;-93
2023/01/31 03:06:33;;;;;;;8.13;0.70;;;3.80;99.90;;;;;;5017283;28;20434;-88
2023/01/31 03:09:25;;;;;;;7.17;1.00;;;3.80;99.90;;;;;;5017184;28;20472;-89
2023/01/31 03:12:19;;;;;;;8.73;0.60;;;3.80;99.90;;;;;;5017434;28;20438;-90
2023/01/31 03:14:58;;;;;;;7.27;2.00;;;3.80;99.90;;;;;;5017160;28;20414;-92
2023/01/31 03:17:48;;;;;;;13.77;2.30;;;3.90;99.90;;;;;;5016981;28;20508;-89
2023/01/31 03:20:17;;;;;;;8.83;0.83;;;3.90;99.90;;;;;;5017112;28;20418;-89
2023/01/31 03:22:48;;;;;;;4.13;0.77;;;3.90;99.90;;;;;;4995999;28;20431;-91
2023/01/31 03:25:17;;;;;;;4.70;0.40;;;3.90;99.90;;;;;;4997397;28;20422;-90
2023/01/31 03:27:47;;;;;;;5.50;0.40;;;3.80;99.90;;;;;;4999238;28;20805;-87
2023/01/31 03:30:17;;;;;;;7.43;0.63;;;3.80;99.90;;;;;;5016953;28;20430;-90
2023/01/31 03:32:53;;;;;;;4.40;0.73;;;3.70;99.90;;;;;;5016133;28;20485;-90
2023/01/31 03:35:22;;;;;;;5.40;0.80;;;3.50;99.90;;;;;;5032180;28;20515;-87
2023/01/31 03:37:55;;;;;;;7.70;1.17;;;3.40;99.90;;;;;;5031760;28;20418;-92
2023/01/31 03:40:30;;;;;;;7.30;1.43;;;3.30;99.90;;;;;;5016463;28;20414;-84
2023/01/31 03:43:30;;;;;;;1.90;0.37;;;3.20;99.90;;;;;;5016494;28;20395;-91
2023/01/31 03:46:15;;;;;;;5.33;0.90;;;3.20;99.90;;;;;;5030679;28;20424;-87
2023/01/31 03:48:45;;;;;;;5.37;0.50;;;3.10;99.90;;;;;;5016086;28;20486;-91
2023/01/31 03:51:18;;;;;;;3.27;0.70;;;3.00;99.90;;;;;;5016329;28;20411;-85
2023/01/31 03:54:00;;;;;;;4.80;0.50;;;3.00;99.90;;;;;;5018569;28;20402;-90
2023/01/31 03:56:41;;;;;;;4.93;0.73;;;2.90;99.90;;;;;;5028337;28;20493;-91
2023/01/31 03:59:21;;;;;;;7.70;0.83;;;2.90;99.90;;;;;;5029461;28;20452;-88
2023/01/31 04:01:50;;;;;;;7.47;0.73;;;3.00;99.90;;;;;;5032914;28;20481;-91
2023/01/31 04:04:36;;;;;;;7.80;1.00;;;3.00;99.90;;;;;;5015957;28;20436;-93
2023/01/31 04:07:02;;;;;;;4.10;0.70;;;3.10;99.90;;;;;;5026367;28;20760;-88
2023/01/31 04:09:27;;;;;;;6.37;1.10;;;3.20;99.90;;;;;;5022323;28;20462;-93
2023/01/31 04:11:53;;;;;;;4.13;1.13;;;3.20;99.90;;;;;;5010964;28;20185;-89
2023/01/31 04:14:19;;;;;;;7.50;0.80;;;3.30;99.90;;;;;;5028057;28;20433;-90
2023/01/31 04:16:44;;;;;;;14.73;1.97;;;3.40;99.90;;;;;;5007556;28;20209;-96
2023/01/31 04:19:10;;;;;;;4.47;1.03;;;3.50;99.90;;;;;;5026368;28;20183;-92
2023/01/31 04:21:35;;;;;;;7.90;1.87;;;3.50;99.90;;;;;;5013500;28;20259;-91
2023/01/31 04:24:01;;;;;;;4.30;1.03;;;3.60;99.90;;;;;;5019245;28;20200;-92
2023/01/31 04:26:26;;;;;;;6.43;1.00;;;3.60;99.90;;;;;;5026889;28;20197;-90
2023/01/31 04:28:52;;;;;;;14.63;0.97;;;3.60;99.90;;;;;;5026587;28;20182;-92
2023/01/31 04:31:17;;;;;;;12.83;2.73;;;3.60;99.90;;;;;;5012500;28;20180;-92
2023/01/31 04:33:43;;;;;;;6.07;1.43;;;3.60;99.90;;;;;;5025439;28;20180;-81
2023/01/31 04:36:09;;;;;;;5.57;0.93;;;3.70;99.90;;;;;;4991932;28;20211;-85
2023/01/31 04:38:34;;;;;;;9.03;1.37;;;3.70;99.90;;;;;;5042418;28;20170;-91
2023/01/31 04:41:00;;;;;;;14.40;1.77;;;3.70;99.90;;;;;;5019691;28;20862;-85
2023/01/31 04:43:28;;;;;;;7.37;0.90;;;3.80;99.90;;;;;;5043066;28;20175;-92
2023/01/31 04:45:53;;;;;;;7.30;0.93;;;3.80;99.90;;;;;;5037247;28;20238;-94
2023/01/31 04:48:19;;;;;;;9.93;1.00;;;3.80;99.90;;;;;;5028871;28;20841;-90
2023/01/31 04:50:45;;;;;;;14.97;1.27;;;3.80;99.90;;;;;;5012896;28;20219;-84
2023/01/31 04:53:10;;;;;;;12.63;0.70;;;3.80;99.90;;;;;;5017907;28;20246;-83
2023/01/31 04:55:35;;;;;;;6.87;1.33;;;3.80;99.90;;;;;;5037678;28;20191;-88
2023/01/31 04:58:01;;;;;;;7.50;1.27;;;3.90;99.90;;;;;;5024287;28;20167;-89
2023/01/31 05:00:27;;;;;;;7.00;1.20;;;3.90;99.90;;;;;;5032559;28;20177;-87
2023/01/31 05:02:52;;;;;;;11.80;2.40;;;3.90;99.90;;;;;;5024107;28;20246;-86
2023/01/31 05:05:19;;;;;;;9.73;1.27;;;3.90;99.90;;;;;;5023484;28;20179;-90
2023/01/31 05:07:45;;;;;;;4.73;0.73;;;3.90;99.90;;;;;;5019493;28;20182;-87
2023/01/31 05:10:11;;;;;;;14.20;1.60;;;3.90;99.90;;;;;;5017528;28;20450;-92
2023/01/31 05:12:36;;;;;;;10.13;1.00;;;4.00;99.90;;;;;;5017355;28;20924;-84
2023/01/31 05:15:02;;;;;;;9.00;0.60;;;4.00;99.90;;;;;;5019099;28;20454;-95
2023/01/31 05:17:28;;;;;;;3.43;0.60;;;4.00;99.90;;;;;;5018192;28;20733;-93
2023/01/31 05:19:57;;;;;;;17.03;1.40;;;4.00;99.90;;;;;;5017393;28;20410;-93
2023/01/31 05:22:23;;;;;;;7.30;1.50;;;4.10;99.90;;;;;;5021697;28;20420;-94
2023/01/31 05:24:49;;;;;;;8.83;1.80;;;4.10;99.90;;;;;;5021109;28;20475;-92
2023/01/31 05:27:15;;;;;;;10.30;1.53;;;4.10;99.90;;;;;;5003245;28;21140;-89
2023/01/31 05:29:41;;;;;;;4.60;1.77;;;4.10;99.90;;;;;;5019157;28;20441;-90
2023/01/31 05:32:07;;;;;;;9.67;0.90;;;4.00;99.90;;;;;;5019393;28;21016;-93
2023/01/31 05:34:33;;;;;;;9.10;1.40;;;4.10;99.90;;;;;;5001768;28;20167;-89
2023/01/31 05:36:59;;;;;;;2.40;1.30;;;4.10;99.90;;;;;;5020853;28;20499;-93
2023/01/31 05:39:25;;;;;;;6.23;0.63;;;4.10;99.90;;;;;;5004025;28;20416;-88
2023/01/31 05:41:53;;;;;;;6.67;1.20;;;4.10;99.90;;;;;;5024541;28;20936;-92
2023/01/31 05:44:19;;;;;;;7.07;1.07;;;4.10;99.90;;;;;;5017051;28;20171;-88
2023/01/31 05:46:45;;;;;;;8.70;1.17;;;4.10;99.90;;;;;;4999090;28;20422;-89
2023/01/31 05:49:11;;;;;;;7.50;1.60;;;4.10;99.90;;;;;;4999773;28;20519;-91
2023/01/31 05:51:37;;;;;;;6.37;1.20;;;4.20;99.90;;;;;;5018639;28;20194;-91
2023/01/31 05:54:03;;;;;;;8.13;0.70;;;4.20;99.90;;;;;;5017380;28;20418;-91
2023/01/31 05:56:29;;;;;;;7.17;1.23;;;4.20;99.90;;;;;;5017485;28;20481;-93
2023/01/31 05:58:54;;;;;;;9.53;1.30;;;4.20;99.90;;;;;;5001291;28;20422;-87
2023/01/31 06:01:22;;;;;;;12.80;1.13;;;4.20;99.90;;;;;;5002577;28;20244;-94
2023/01/31 06:03:48;;;;;;;17.63;1.70;;;4.20;99.90;;;;;;4984938;28;20205;-92
2023/01/31 06:06:13;;;;;;;13.03;2.20;;;4.20;99.90;;;;;;5002181;28;20790;-87
2023/01/31 06:08:40;;;;;;;7.30;0.90;;;4.20;99.90;;;;;;5025646;28;20709;-90
2023/01/31 06:11:10;;;;;;;10.50;2.77;;;4.20;99.90;;;;;;5025962;28;20195;-90
2023/01/31 06:13:37;;;;;;;10.90;2.50;;;4.20;99.90;;;;;;5010344;28;20502;-84
2023/01/31 06:16:02;;;;;;;9.83;2.13;;;4.20;99.90;;;;;;4978026;23;1025344;-92
2023/01/31 06:18:28;;;;;;;13.80;2.23;;;4.30;99.90;;;;;;4989430;28;20192;-94
2023/01/31 06:20:53;;;;;;;10.90;1.13;;;4.30;99.90;;;;;;4977505;28;20172;-82
2023/01/31 06:23:19;;;;;;;7.60;2.43;;;4.20;99.90;;;;;;4977826;28;20182;-85
2023/01/31 06:25:48;;;;;;;10.03;0.93;;;4.30;99.90;;;;;;4991999;28;20189;-91
2023/01/31 06:28:14;;;;;;;10.27;1.07;;;4.20;99.90;;;;;;4978563;28;20190;-95
2023/01/31 06:30:39;;;;;;;10.80;1.90;;;4.30;99.90;;;;;;4975797;28;20425;-93
2023/01/31 06:33:05;;;;;;;8.23;1.23;;;4.30;99.90;;;;;;4971319;28;20181;-95
2023/01/31 06:35:32;;;;;;;11.93;2.07;;;4.30;99.90;;;;;;4987324;23;20250;-78
2023/01/31 06:37:58;;;;;;;9.10;1.80;;;4.30;99.90;;;;;;5020634;23;20230;-90
2023/01/31 06:40:23;;;;;;;8.43;1.17;;;4.30;99.90;;;;;;4997206;28;20404;-90
2023/01/31 06:42:49;;;;;;;10.10;1.57;;;4.30;99.90;;;;;;4977926;28;20188;-82
2023/01/31 06:45:15;;;;;;;13.40;1.70;;;4.30;99.90;;;;;;4979647;28;20175;-85
2023/01/31 06:47:40;;;;;;;9.40;1.90;;;4.30;99.90;;;;;;4980570;28;20242;-94
2023/01/31 06:50:06;;;;;;;14.47;1.17;;;4.30;99.90;;;;;;4982858;28;20529;-88
2023/01/31 06:52:31;;;;;;;14.90;2.77;;;4.30;99.90;;;;;;4968438;28;20202;-94
2023/01/31 06:54:57;;;;;;;15.60;1.27;;;4.30;99.90;;;;;;4963258;28;20637;-94
2023/01/31 06:57:22;;;;;;;5.10;1.27;;;4.30;99.90;;;;;;4979401;28;20810;-91
2023/01/31 06:59:48;;;;;;;11.07;1.03;;;4.40;99.90;;;;;;4977596;28;20175;-92
2023/01/31 07:02:13;;;;;;;5.50;1.23;;;4.40;99.90;;;;;;4960309;28;20185;-88
2023/01/31 07:04:42;;;;;;;10.40;1.90;;;4.40;99.90;;;;;;4977394;28;20187;-92
2023/01/31 07:07:07;;;;;;;6.90;0.90;;;4.40;99.90;;;;;;4922139;28;20221;-94
2023/01/31 07:09:32;;;;;;;9.90;1.57;;;4.30;99.90;;;;;;4988086;28;20432;-89
2023/01/31 07:11:58;;;;;;;11.73;1.77;;;4.30;99.90;;;;;;4980152;28;20175;-92
2023/01/31 07:14:23;;;;;;;6.23;0.97;;;4.30;99.90;;;;;;4966850;28;20178;-93
2023/01/31 07:16:49;;;;;;;8.10;2.93;;;4.30;99.90;;;;;;4958563;28;20241;-93
2023/01/31 07:19:15;;;;;;;9.43;0.90;;;4.30;99.90;;;;;;4958271;28;20173;-87
2023/01/31 07:21:41;;;;;;;3.57;1.30;;;4.30;99.90;;;;;;4959945;29;20257;-92
2023/01/31 07:24:07;;;;;;;5.97;1.17;;;4.30;99.90;;;;;;4959603;28;20181;-80
2023/01/31 07:26:33;;;;;;;8.47;1.77;;;4.30;99.90;;;;;;4957650;28;20431;-89
2023/01/31 07:28:59;;;;;;;4.30;1.10;;;4.40;99.90;;;;;;4957194;28;20421;-89
2023/01/31 07:31:24;;;;;;;10.00;1.60;;;4.40;99.90;;;;;;4957054;29;20571;-91
2023/01/31 07:33:53;;;;;;;6.83;1.57;;;4.40;99.90;;;;;;4957618;29;20183;-80
2023/01/31 07:36:23;;;;;;;8.30;2.30;;;4.40;99.90;;;;;;4957815;28;20573;-91
2023/01/31 07:38:48;;;;;;;9.73;2.50;;;4.40;99.90;;;;;;4956668;28;20866;-87
2023/01/31 07:41:14;;;;;;;12.80;2.70;;;4.40;99.90;;;;;;4957866;28;20490;-84
2023/01/31 07:43:39;;;;;;;8.50;1.80;;;4.50;99.90;;;;;;4956934;29;20176;-86
2023/01/31 07:46:09;;;;;;;10.33;2.73;;;4.50;99.90;;;;;;4958166;29;20220;-86
2023/01/31 07:48:34;;;;;;;9.87;2.43;;;4.50;99.90;;;;;;4956757;29;20240;-88
2023/01/31 07:51:01;;;;;;;8.47;2.17;;;4.50;99.90;;;;;;4956965;29;20442;-92
2023/01/31 07:53:32;;;;;;;22.43;3.80;;;4.50;99.90;;;;;;4958666;29;20641;-86
2023/01/31 07:56:09;;;;;;;8.67;1.80;;;4.60;99.90;;;;;;4961772;28;20523;-80
2023/01/31 07:58:36;;;;;;;8.50;2.17;;;4.60;99.90;;;;;;4960718;29;20409;-91
2023/01/31 08:03:46;;;;;;;5.90;2.00;;;4.60;99.90;;;;;;4960811;29;20464;-92
2023/01/31 08:06:12;;;;;;;11.33;2.47;;;4.60;99.90;;;;;;4956841;29;20434;-91
2023/01/31 08:08:44;;;;;;;13.07;2.47;;;4.60;99.90;;;;;;4924318;28;20185;-91
2023/01/31 08:11:12;;;;;;;10.77;3.40;;;4.60;99.90;;;;;;4977368;28;20768;-92
2023/01/31 08:13:38;;;;;;;9.10;2.50;;;4.60;99.90;;;;;;4976052;28;20459;-91
2023/01/31 08:16:05;;;;;;;11.73;3.20;;;4.70;99.90;;;;;;4975954;28;20512;-93
2023/01/31 08:18:31;;;;;;;6.23;3.07;;;4.70;99.90;;;;;;4975896;28;20197;-91
2023/01/31 08:20:57;;;;;;;15.33;4.30;;;4.70;99.90;;;;;;4976904;28;20421;-89
2023/01/31 08:23:23;;;;;;;13.07;2.93;;;4.80;99.90;;;;;;4976283;28;20269;-91
2023/01/31 08:25:48;;;;;;;16.90;3.80;;;4.80;99.90;;;;;;4975896;28;21021;-90
2023/01/31 08:28:17;;;;;;;11.10;4.40;;;4.80;99.90;;;;;;4975759;28;20191;-90
2023/01/31 08:30:43;;;;;;;10.73;3.47;;;4.80;99.90;;;;;;4976254;28;20182;-83
2023/01/31 08:33:10;;;;;;;8.60;3.10;;;4.80;99.90;;;;;;4975649;28;20418;-92
2023/01/31 08:35:39;;;;;;;7.47;1.90;;;4.80;99.90;;;;;;4977834;28;20461;-82
2023/01/31 08:38:04;;;;;;;6.40;3.10;;;4.90;99.90;;;;;;4984048;28;20573;-81
2023/01/31 08:40:31;;;;;;;12.50;2.80;;;4.90;99.90;;;;;;4975527;28;20461;-89
2023/01/31 08:42:57;;;;;;;12.13;3.07;;;4.90;99.90;;;;;;4975582;28;20219;-82
2023/01/31 08:45:23;;;;;;;10.00;2.10;;;4.90;99.90;;;;;;4976200;28;20426;-94
2023/01/31 08:47:54;;;;;;;12.97;4.13;;;4.90;99.90;;;;;;4977622;28;20427;-94
2023/01/31 08:50:20;;;;;;;19.17;3.77;;;4.90;99.90;;;;;;4979282;28;20179;-84
2023/01/31 08:52:45;;;;;;;12.00;3.10;;;4.90;99.90;;;;;;4975849;28;20425;-94
2023/01/31 08:55:12;;;;;;;9.27;1.80;;;4.90;99.90;;;;;;4975316;28;20428;-86
2023/01/31 08:57:39;;;;;;;13.33;3.43;;;5.00;99.90;;;;;;4978989;28;20165;-94
2023/01/31 09:00:06;;;;;;;9.50;2.80;;;5.10;99.90;;;;;;4959609;28;20435;-93
2023/01/31 09:02:31;;;;;;;6.47;3.07;;;5.10;99.90;;;;;;4958320;28;20566;-90
2023/01/31 09:04:57;;;;;;;11.43;3.70;;;5.20;99.90;;;;;;4975910;28;20512;-84
2023/01/31 09:07:22;;;;;;;21.80;4.33;;;5.20;99.90;;;;;;4981269;28;20184;-94
2023/01/31 09:09:48;;;;;;;12.10;2.70;;;5.20;99.90;;;;;;4977021;28;20187;-85
2023/01/31 09:12:14;;;;;;;12.20;2.90;;;5.10;99.90;;;;;;4960204;28;20190;-89
2023/01/31 09:14:39;;;;;;;10.53;3.80;;;5.10;99.90;;;;;;4979882;28;20451;-83
2023/01/31 09:17:06;;;;;;;12.80;2.70;;;5.10;99.90;;;;;;4975173;28;20216;-80
2023/01/31 09:19:32;;;;;;;11.97;3.30;;;5.10;99.90;;;;;;4981299;28;20181;-80
2023/01/31 09:21:58;;;;;;;12.43;3.10;;;5.10;99.90;;;;;;4987744;28;20431;-92
2023/01/31 09:24:23;;;;;;;14.43;4.07;;;5.20;99.90;;;;;;4969558;28;20533;-86
2023/01/31 09:26:49;;;;;;;13.67;3.27;;;5.10;99.90;;;;;;4967627;28;20198;-92
2023/01/31 09:29:14;;;;;;;13.93;3.60;;;5.20;99.90;;;;;;4974542;28;20182;-90
2023/01/31 09:31:40;;;;;;;12.13;3.43;;;5.20;99.90;;;;;;4961834;28;20186;-91
2023/01/31 09:34:05;;;;;;;6.30;2.57;;;5.10;99.90;;;;;;4973819;28;20240;-83
2023/01/31 09:36:31;;;;;;;16.43;3.97;;;5.20;99.90;;;;;;4979613;28;20228;-90
2023/01/31 09:38:56;;;;;;;3.77;3.07;;;5.20;99.90;;;;;;4968725;28;20250;-85
2023/01/31 09:41:37;;;;;;;10.27;4.40;;;5.20;99.90;;;;;;4971724;28;20258;-94
2023/01/31 09:44:12;;;;;;;10.43;3.33;;;5.20;99.90;;;;;;4950553;29;20240;-94
2023/01/31 09:46:51;;;;;;;8.60;3.60;;;5.20;99.90;;;;;;4967250;28;20482;-94
2023/01/31 09:49:27;;;;;;;10.93;4.87;;;5.10;99.90;;;;;;4983348;28;20452;-93
2023/01/31 09:51:57;;;;;;;12.83;3.07;;;5.10;99.90;;;;;;4985966;28;20412;-93
2023/01/31 09:54:40;;;;;;;6.13;3.03;;;5.10;99.90;;;;;;4979531;28;20428;-91
2023/01/31 09:57:11;;;;;;;7.60;2.83;;;5.00;99.90;;;;;;4985401;28;20940;-95
2023/01/31 09:59:58;;;;;;;7.63;3.00;;;5.10;99.90;;;;;;4982362;28;20433;-93
2023/01/31 10:02:58;;;;;;;4.17;2.80;;;5.10;99.90;;;;;;4982776;28;20447;-89
2023/01/31 10:05:47;;;;;;;7.10;3.03;;;5.10;99.90;;;;;;4992213;28;20429;-80
2023/01/31 10:08:54;;;;;;;8.03;3.30;;;5.10;99.90;;;;;;4979929;28;20413;-93
2023/01/31 10:11:35;;;;;;;12.80;4.63;;;5.10;99.90;;;;;;4976640;28;20805;-85
2023/01/31 10:14:25;;;;;;;16.90;5.10;;;5.20;99.90;;;;;;4975203;28;20439;-80
2023/01/31 10:17:05;;;;;;;8.73;4.23;;;5.20;99.90;;;;;;4974291;28;20512;-87
2023/01/31 10:20:01;;;;;;;10.30;4.17;;;5.10;99.90;;;;;;4927179;28;20424;-83
2023/01/31 10:22:38;;;;;;;6.63;3.73;;;5.20;99.90;;;;;;4966046;28;20412;-82
2023/01/31 10:25:25;;;;;;;5.37;2.67;;;5.20;99.90;;;;;;4964394;28;20421;-80
2023/01/31 10:27:56;;;;;;;9.10;3.10;;;5.20;99.90;;;;;;4954736;28;20428;-81
2023/01/31 10:30:27;;;;;;;4.80;3.47;;;5.20;99.90;;;;;;4967468;28;20420;-81
2023/01/31 10:33:04;;;;;;;3.80;2.40;;;5.30;99.90;;;;;;4966143;28;20427;-94
2023/01/31 10:35:38;;;;;;;7.80;3.43;;;5.30;99.90;;;;;;4964089;28;20534;-88
2023/01/31 10:38:12;;;;;;;10.30;3.70;;;5.30;99.90;;;;;;4964319;28;20467;-91
2023/01/31 10:40:43;;;;;;;7.87;4.40;;;5.40;99.90;;;;;;4957872;28;20771;-81
2023/01/31 10:43:17;;;;;;;15.80;4.50;;;5.40;99.90;;;;;;4955017;28;20424;-92
2023/01/31 10:45:43;;;;;;;17.80;3.50;;;5.40;99.90;;;;;;4957144;28;20972;-84
2023/01/31 10:48:25;;;;;;;12.97;4.07;;;5.50;99.90;;;;;;4971761;28;20429;-88
2023/01/31 10:51:24;;;;;;;14.53;3.63;;;5.50;99.90;;;;;;4957344;28;20184;-93
2023/01/31 10:54:05;;;;;;;10.67;4.47;;;5.50;99.90;;;;;;4976808;28;20413;-87
2023/01/31 10:56:36;;;;;;;13.97;4.50;;;5.50;99.90;;;;;;4981665;28;20556;-82
2023/01/31 10:59:06;;;;;;;12.67;5.57;;;5.50;99.90;;;;;;4976597;28;20431;-83
2023/01/31 11:01:33;;;;;;;8.63;4.20;;;5.50;99.90;;;;;;4977130;28;20427;-87
2023/01/31 11:04:20;;;;;;;10.60;4.50;;;5.50;99.90;;;;;;4941120;29;20432;-85
2023/01/31 11:06:46;;;;;;;7.93;4.73;;;5.50;99.90;;;;;;4959712;28;20465;-84
2023/01/31 11:09:13;;;;;;;9.60;3.83;;;5.50;99.90;;;;;;4976749;28;20860;-83
2023/01/31 11:11:53;;;;;;;6.27;3.77;;;5.60;99.90;;;;;;4976613;28;20633;-83
2023/01/31 11:14:19;;;;;;;9.27;4.47;;;5.60;99.90;;;;;;4976690;28;20774;-83
2023/01/31 11:16:45;;;;;;;7.97;3.40;;;5.70;99.90;;;;;;4976332;28;20476;-83
2023/01/31 11:19:33;;;;;;;13.00;3.40;;;5.70;99.90;;;;;;4925588;28;20225;-83
2023/01/31 11:21:59;;;;;;;10.87;5.00;;;5.70;99.90;;;;;;4959667;28;20183;-84
2023/01/31 11:24:29;;;;;;;9.97;4.00;;;5.70;99.90;;;;;;4976687;28;20753;-84
2023/01/31 11:27:05;;;;;;;7.50;2.93;;;5.80;99.90;;;;;;4976542;28;20252;-83
2023/01/31 11:29:38;;;;;;;10.80;4.33;;;5.80;99.90;;;;;;4976582;28;20404;-83
2023/01/31 11:32:17;;;;;;;4.93;2.37;;;5.80;99.90;;;;;;4975447;28;20434;-83
2023/01/31 11:35:02;;;;;;;8.20;3.53;;;5.80;99.90;;;;;;4957043;28;20423;-83
2023/01/31 11:37:28;;;;;;;6.50;3.30;;;5.90;99.90;;;;;;4957166;29;20424;-83
2023/01/31 11:40:00;;;;;;;11.13;3.83;;;5.90;99.90;;;;;;4957146;28;20849;-82
2023/01/31 11:42:26;;;;;;;6.97;2.90;;;5.90;99.90;;;;;;4957099;29;20417;-83
2023/01/31 11:44:59;;;;;;;7.87;4.07;;;5.90;99.90;;;;;;4956056;29;20953;-80
2023/01/31 11:47:31;;;;;;;4.60;3.00;;;5.90;99.90;;;;;;4956656;28;20427;-83
2023/01/31 11:49:57;;;;;;;9.67;3.17;;;6.00;99.90;;;;;;4955977;29;20957;-83
2023/01/31 11:52:30;;;;;;;11.17;3.53;;;6.00;99.90;;;;;;4955423;29;20421;-83
2023/01/31 11:54:59;;;;;;;6.60;2.60;;;6.00;99.90;;;;;;4956916;29;20628;-82
2023/01/31 11:57:36;;;;;;;8.03;2.70;;;6.00;99.90;;;;;;4956776;29;20428;-83
2023/01/31 12:00:26;;;;;;;5.23;2.50;;;6.10;99.90;;;;;;4956889;29;20444;-83
2023/01/31 12:03:03;;;;;;;5.97;1.60;;;6.10;99.90;;;;;;4956543;29;20509;-83
2023/01/31 12:05:50;;;;;;;5.17;1.47;;;6.10;99.90;;;;;;4955727;28;20771;-83
2023/01/31 12:08:30;;;;;;;6.10;2.97;;;6.10;99.90;;;;;;4955377;29;20788;-83
2023/01/31 12:10:56;;;;;;;7.27;2.90;;;6.10;99.90;;;;;;4955425;29;20460;-83
2023/01/31 12:13:23;;;;;;;5.07;1.73;;;6.20;99.90;;;;;;4956402;29;21034;-83
2023/01/31 12:16:03;;;;;;;3.57;1.73;;;6.20;99.90;;;;;;4954835;28;20846;-83
2023/01/31 12:18:51;;;;;;;5.30;2.03;;;6.20;99.90;;;;;;4915728;28;20934;-83
2023/01/31 12:21:56;;;;;;;4.17;1.37;;;6.30;99.90;;;;;;4939327;29;20946;-83
2023/01/31 12:24:44;;;;;;;5.60;1.80;;;6.30;99.90;;;;;;4935540;29;20434;-83
2023/01/31 12:27:53;;;;;;;8.27;2.20;;;6.30;99.90;;;;;;4903105;29;20427;-83
2023/01/31 12:30:40;;;;;;;3.83;1.20;;;6.30;99.90;;;;;;4919469;29;20498;-83
2023/01/31 12:33:39;;;;;;;3.13;1.27;;;6.30;99.90;;;;;;4953707;28;20445;-85
2023/01/31 12:36:30;;;;;;;2.40;1.10;;;6.40;99.90;;;;;;4954436;29;20961;-93
2023/01/31 12:39:12;;;;;;;6.40;1.30;;;6.50;99.90;;;;;;4955727;28;20486;-92
2023/01/31 12:42:00;;;;;;;3.57;1.50;;;6.40;99.90;;;;;;4955281;29;20781;-90
2023/01/31 12:44:42;;;;;;;3.00;1.17;;;6.40;99.90;;;;;;4955825;29;20938;-91
2023/01/31 12:47:44;;;;;;;2.00;0.77;;;6.60;99.90;;;;;;4958346;29;20424;-93
2023/01/31 12:50:38;;;;;;;3.20;1.10;;;6.60;99.90;;;;;;4957019;29;20999;-93
2023/01/31 12:53:31;;;;;;;2.63;0.30;;;6.50;99.90;;;;;;4956404;29;20478;-87
2023/01/31 12:56:24;;;;;;;2.63;0.50;;;6.50;99.90;;;;;;4955198;29;20479;-88
2023/01/31 12:59:17;;;;;;;4.77;0.83;;;6.60;99.90;;;;;;4956749;29;20816;-92
2023/01/31 13:02:09;;;;;;;1.00;0.27;;;6.70;99.90;;;;;;4954598;29;20420;-89
2023/01/31 13:04:42;;;;;;;4.00;1.07;;;6.70;99.90;;;;;;4964103;29;20434;-83
2023/01/31 13:07:24;;;;;;;3.00;0.80;;;6.70;99.90;;;;;;4956360;29;20426;-92
2023/01/31 13:09:53;;;;;;;2.40;0.57;;;6.70;99.90;;;;;;4955421;29;20426;-92
2023/01/31 13:12:24;;;;;;;1.23;0.30;;;6.70;99.90;;;;;;4955327;29;20415;-89
2023/01/31 13:15:35;;;;;;;1.73;0.60;;;6.70;99.90;;;;;;4955823;29;20406;-86
2023/01/31 13:18:05;;;;;;;2.20;0.60;;;6.80;99.90;;;;;;4913150;29;20937;-83
2023/01/31 13:20:45;;;;;;;2.90;0.70;;;6.70;99.90;;;;;;4915446;29;20456;-89
2023/01/31 13:23:21;;;;;;;1.30;0.40;;;6.80;99.90;;;;;;4955167;29;20462;-85
2023/01/31 13:25:54;;;;;;;0.90;0.50;;;7.00;99.90;;;;;;4955728;29;20420;-85